createdAt,value
2023-05-19T00:02:24.342Z,16.77
2023-05-19T00:05:16.263Z,17.23
2023-05-19T00:07:49.898Z,16.08
2023-05-19T00:10:32.008Z,15.00
2023-05-19T00:13:03.881Z,15.65
2023-05-19T00:15:35.957Z,17.98
2023-05-19T00:18:04.164Z,15.75
2023-05-19T00:20:37.285Z,16.05
2023-05-19T00:23:10.990Z,15.77
2023-05-19T00:25:46.350Z,16.77
2023-05-19T00:28:14.683Z,17.05
2023-05-19T00:30:42.973Z,14.32
2023-05-19T00:33:11.628Z,16.95
2023-05-19T00:35:47.490Z,15.10
2023-05-19T00:38:21.561Z,14.77
2023-05-19T00:40:52.195Z,15.45
2023-05-19T00:43:41.256Z,15.48
2023-05-19T00:46:13.940Z,15.00
2023-05-19T00:48:44.754Z,16.00
2023-05-19T00:51:16.988Z,15.25
2023-05-19T00:53:59.236Z,13.38
2023-05-19T00:56:28.986Z,14.82
2023-05-19T00:58:58.532Z,14.30
2023-05-19T01:01:28.031Z,16.30
2023-05-19T01:04:00.087Z,15.52
2023-05-19T01:06:29.783Z,16.13
2023-05-19T01:08:58.726Z,16.25
2023-05-19T01:11:28.202Z,15.00
2023-05-19T01:13:56.822Z,15.70
2023-05-19T01:16:30.860Z,16.15
2023-05-19T01:19:11.123Z,15.60
2023-05-19T01:22:08.060Z,15.77
2023-05-19T01:25:01.576Z,15.63
2023-05-19T01:27:45.649Z,15.98
2023-05-19T01:30:27.219Z,16.20
2023-05-19T01:32:59.503Z,17.52
2023-05-19T01:35:28.818Z,17.65
2023-05-19T01:38:00.251Z,15.48
2023-05-19T01:40:30.438Z,16.67
2023-05-19T01:43:01.160Z,18.63
2023-05-19T01:45:32.980Z,18.83
2023-05-19T01:48:04.363Z,17.77
2023-05-19T01:50:33.709Z,18.75
2023-05-19T01:53:02.896Z,18.60
2023-05-19T01:55:31.340Z,18.60
2023-05-19T01:58:11.730Z,20.40
2023-05-19T02:00:52.727Z,19.35
2023-05-19T02:03:32.618Z,19.15
2023-05-19T02:06:11.307Z,20.38
2023-05-19T02:08:44.248Z,19.67
2023-05-19T02:11:21.777Z,21.67
2023-05-19T02:13:53.441Z,19.00
2023-05-19T02:16:28.036Z,19.58
2023-05-19T02:18:57.559Z,24.80
2023-05-19T02:21:25.957Z,20.33
2023-05-19T02:23:54.114Z,21.45
2023-05-19T02:26:22.917Z,19.92
2023-05-19T02:28:51.113Z,22.98
2023-05-19T02:31:19.248Z,20.38
2023-05-19T02:33:48.878Z,21.88
2023-05-19T02:36:17.219Z,21.92
2023-05-19T02:38:45.381Z,19.60
2023-05-19T02:41:13.566Z,22.60
2023-05-19T02:43:41.788Z,18.58
2023-05-19T02:46:09.967Z,20.70
2023-05-19T02:48:38.250Z,22.65
2023-05-19T02:51:07.910Z,20.75
2023-05-19T02:53:36.124Z,22.30
2023-05-19T02:56:04.591Z,18.92
2023-05-19T02:58:32.823Z,19.67
2023-05-19T03:01:01.079Z,19.65
2023-05-19T03:03:29.279Z,21.23
2023-05-19T03:05:57.487Z,20.83
2023-05-19T03:08:27.366Z,24.63
2023-05-19T03:10:55.569Z,22.77
2023-05-19T03:13:23.889Z,22.83
2023-05-19T03:15:52.027Z,20.80
2023-05-19T03:18:20.274Z,27.55
2023-05-19T03:20:48.585Z,25.85
2023-05-19T03:23:16.907Z,23.58
2023-05-19T03:25:46.443Z,23.75
2023-05-19T03:28:14.644Z,21.83
2023-05-19T03:30:42.783Z,21.40
2023-05-19T03:33:11.197Z,23.88
2023-05-19T03:35:39.579Z,20.08
2023-05-19T03:38:07.735Z,23.30
2023-05-19T03:40:35.863Z,18.75
2023-05-19T03:43:05.589Z,22.88
2023-05-19T03:45:33.823Z,18.30
2023-05-19T03:48:02.048Z,20.80
2023-05-19T03:50:32.000Z,18.65
2023-05-19T03:53:00.541Z,18.40
2023-05-19T03:55:29.947Z,16.73
2023-05-19T03:57:58.314Z,17.70
2023-05-19T04:00:27.829Z,15.90
2023-05-19T04:02:56.245Z,17.85
2023-05-19T04:05:24.492Z,17.30
2023-05-19T04:07:53.100Z,17.23
2023-05-19T04:10:21.437Z,17.45
2023-05-19T04:12:49.699Z,20.67
2023-05-19T04:15:17.961Z,17.30
2023-05-19T04:17:47.769Z,17.80
2023-05-19T04:20:17.179Z,19.33
2023-05-19T04:22:45.580Z,15.32
2023-05-19T04:25:13.823Z,16.60
2023-05-19T04:27:42.577Z,17.52
2023-05-19T04:30:12.209Z,15.38
2023-05-19T04:32:41.665Z,19.48
2023-05-19T04:35:23.601Z,18.23
2023-05-19T04:37:54.416Z,15.88
2023-05-19T04:40:23.949Z,20.85
2023-05-19T04:42:53.036Z,16.63
2023-05-19T04:45:21.246Z,18.45
2023-05-19T04:47:49.447Z,17.38
2023-05-19T04:50:19.122Z,19.95
2023-05-19T04:52:47.297Z,20.70
2023-05-19T04:55:16.035Z,23.15
2023-05-19T04:57:44.702Z,23.33
2023-05-19T05:00:14.627Z,24.80
2023-05-19T05:02:43.656Z,24.73
2023-05-19T05:05:12.070Z,23.38
2023-05-19T05:07:41.912Z,17.13
2023-05-19T05:10:11.562Z,22.63
2023-05-19T05:12:40.370Z,18.05
2023-05-19T05:15:09.946Z,19.48
2023-05-19T05:17:38.714Z,18.35
2023-05-19T05:20:08.524Z,23.65
2023-05-19T05:22:38.700Z,20.42
2023-05-19T05:25:10.335Z,21.83
2023-05-19T05:27:38.602Z,17.88
2023-05-19T05:30:07.791Z,20.15
2023-05-19T05:32:36.025Z,20.92
2023-05-19T05:35:04.340Z,21.45
2023-05-19T05:37:32.653Z,18.90
2023-05-19T05:40:00.812Z,19.25
2023-05-19T05:42:30.360Z,17.42
2023-05-19T05:44:58.468Z,17.45
2023-05-19T05:47:27.209Z,15.60
2023-05-19T05:49:56.052Z,17.02
2023-05-19T05:52:28.980Z,16.08
2023-05-19T05:54:58.058Z,15.60
2023-05-19T05:57:27.089Z,17.80
2023-05-19T05:59:56.729Z,27.92
2023-05-19T06:02:24.980Z,14.50
2023-05-19T06:04:54.224Z,13.93
2023-05-19T06:07:22.908Z,13.15
2023-05-19T06:09:51.214Z,20.75
2023-05-19T06:12:19.408Z,14.43
2023-05-19T06:14:47.754Z,14.77
2023-05-19T06:17:17.352Z,14.57
2023-05-19T06:19:45.594Z,10.80
2023-05-19T06:22:13.691Z,11.02
2023-05-19T06:24:41.963Z,10.77
2023-05-19T06:27:10.164Z,10.30
2023-05-19T06:29:38.356Z,11.20
2023-05-19T06:32:06.669Z,11.20
2023-05-19T06:34:38.367Z,9.23
2023-05-19T06:37:06.461Z,9.75
2023-05-19T06:39:34.489Z,10.32
2023-05-19T06:42:02.524Z,10.85
2023-05-19T06:44:30.652Z,10.15
2023-05-19T06:46:58.898Z,8.23
2023-05-19T06:49:29.436Z,9.50
2023-05-19T06:51:59.110Z,10.35
2023-05-19T06:54:27.277Z,10.43
2023-05-19T06:56:55.780Z,10.75
2023-05-19T06:59:23.959Z,10.85
2023-05-19T07:01:52.107Z,9.93
2023-05-19T07:04:20.248Z,12.23
2023-05-19T07:06:50.257Z,10.23
2023-05-19T07:09:22.250Z,8.48
2023-05-19T07:11:50.368Z,9.68
2023-05-19T07:14:18.551Z,8.30
2023-05-19T07:16:46.771Z,9.45
2023-05-19T07:19:15.097Z,8.07
2023-05-19T07:21:43.653Z,9.15
2023-05-19T07:24:11.747Z,10.68
2023-05-19T07:26:42.651Z,9.88
2023-05-19T07:29:10.779Z,9.93
2023-05-19T07:31:38.974Z,10.65
2023-05-19T07:34:07.146Z,9.70
2023-05-19T07:36:35.385Z,11.50
2023-05-19T07:39:04.220Z,8.90
2023-05-19T07:41:33.828Z,7.93
2023-05-19T07:44:07.583Z,11.13
2023-05-19T07:46:36.219Z,8.68
2023-05-19T07:49:04.550Z,10.50
2023-05-19T07:51:32.767Z,11.27
2023-05-19T07:54:01.173Z,12.88
2023-05-19T07:56:29.588Z,9.40
2023-05-19T07:58:57.876Z,8.60
2023-05-19T08:01:28.362Z,10.90
2023-05-19T08:03:56.617Z,8.60
2023-05-19T08:06:25.430Z,8.77
2023-05-19T08:08:54.318Z,13.23
2023-05-19T08:11:22.678Z,9.65
2023-05-19T08:13:51.018Z,12.85
2023-05-19T08:16:19.162Z,13.57
2023-05-19T08:18:49.104Z,9.73
2023-05-19T08:21:20.060Z,10.10
2023-05-19T08:24:21.149Z,10.32
2023-05-19T08:26:49.440Z,8.88
2023-05-19T08:29:17.659Z,11.30
2023-05-19T08:31:58.571Z,8.50
2023-05-19T08:34:48.785Z,9.38
2023-05-19T08:37:17.223Z,11.63
2023-05-19T08:39:45.559Z,11.27
2023-05-19T08:42:14.172Z,9.18
2023-05-19T08:44:44.134Z,9.10
2023-05-19T08:47:28.246Z,9.98
2023-05-19T08:50:11.326Z,10.97
2023-05-19T08:52:52.415Z,10.30
2023-05-19T08:55:41.840Z,11.43
2023-05-19T08:58:38.534Z,12.10
2023-05-19T09:01:16.122Z,11.25
2023-05-19T09:03:53.932Z,10.85
2023-05-19T09:06:45.489Z,10.15
2023-05-19T09:09:13.950Z,11.15
2023-05-19T09:11:45.248Z,9.77
2023-05-19T09:14:16.092Z,11.30
2023-05-19T09:16:50.038Z,9.23
2023-05-19T09:19:21.489Z,9.95
2023-05-19T09:22:28.037Z,12.32
2023-05-19T09:25:25.378Z,12.82
2023-05-19T09:28:37.525Z,11.25
2023-05-19T09:31:15.855Z,11.65
2023-05-19T09:34:00.579Z,13.45
2023-05-19T09:39:53.240Z,10.32
2023-05-19T09:42:30.438Z,13.35
2023-05-19T09:45:02.702Z,11.32
2023-05-19T09:47:43.836Z,10.57
2023-05-19T09:50:17.330Z,11.10
2023-05-19T09:52:51.724Z,11.13
2023-05-19T09:55:23.299Z,11.23
2023-05-19T09:57:53.003Z,11.07
2023-05-19T10:00:27.026Z,12.30
2023-05-19T10:02:57.692Z,12.73
2023-05-19T10:05:28.982Z,10.90
2023-05-19T10:07:57.561Z,11.75
2023-05-19T10:10:29.092Z,11.77
2023-05-19T10:13:08.732Z,12.57
2023-05-19T10:15:58.937Z,10.02
2023-05-19T10:18:29.811Z,11.82
2023-05-19T10:21:08.186Z,11.02
2023-05-19T10:23:39.830Z,9.88
2023-05-19T10:26:11.441Z,9.45
2023-05-19T10:28:48.873Z,10.65
2023-05-19T10:31:20.806Z,11.43
2023-05-19T10:34:06.677Z,10.43
2023-05-19T10:36:47.654Z,12.23
2023-05-19T10:39:28.247Z,10.45
2023-05-19T10:42:09.085Z,10.95
2023-05-19T10:45:07.969Z,10.07
2023-05-19T10:47:45.575Z,11.45
2023-05-19T10:50:19.708Z,9.75
2023-05-19T10:52:58.064Z,12.00
2023-05-19T10:55:59.087Z,9.93
2023-05-19T10:59:01.696Z,14.13
2023-05-19T11:01:45.485Z,16.55
2023-05-19T11:04:16.146Z,11.80
2023-05-19T11:06:57.190Z,12.50
2023-05-19T11:09:40.045Z,16.67
2023-05-19T11:12:11.996Z,10.98
2023-05-19T11:15:01.387Z,9.32
2023-05-19T11:17:31.434Z,12.48
2023-05-19T11:20:00.948Z,11.07
2023-05-19T11:22:39.576Z,10.20
2023-05-19T11:25:09.193Z,9.75
2023-05-19T11:27:41.463Z,11.48
2023-05-19T11:30:17.963Z,10.13
2023-05-19T11:32:49.730Z,11.75
2023-05-19T11:35:28.437Z,11.13
2023-05-19T11:37:57.666Z,9.23
2023-05-19T11:40:30.296Z,12.13
2023-05-19T11:43:25.054Z,10.25
2023-05-19T11:49:10.670Z,12.55
2023-05-19T11:51:40.935Z,11.40
2023-05-19T11:54:27.781Z,11.10
2023-05-19T11:56:56.077Z,15.60
2023-05-19T11:59:36.258Z,10.52
2023-05-19T12:02:20.107Z,11.23
2023-05-19T12:04:58.174Z,11.20
2023-05-19T12:07:33.611Z,10.30
2023-05-19T12:10:06.445Z,12.80
2023-05-19T12:12:36.609Z,11.40
2023-05-19T12:15:07.386Z,13.30
2023-05-19T12:17:37.490Z,17.30
2023-05-19T12:20:14.078Z,11.63
2023-05-19T12:23:02.728Z,10.70
2023-05-19T12:25:32.082Z,11.73
2023-05-19T12:28:03.577Z,10.82
2023-05-19T12:30:33.628Z,10.70
2023-05-19T12:33:05.181Z,10.27
2023-05-19T12:35:34.492Z,12.00
2023-05-19T12:38:07.862Z,10.35
2023-05-19T12:40:37.528Z,11.23
2023-05-19T12:43:07.014Z,16.00
2023-05-19T12:45:39.023Z,13.60
2023-05-19T12:48:16.066Z,11.82
2023-05-19T12:50:45.290Z,12.48
2023-05-19T12:53:13.860Z,15.68
2023-05-19T12:55:43.775Z,11.98
2023-05-19T12:58:12.693Z,14.82
2023-05-19T13:00:45.291Z,15.82
2023-05-19T13:03:22.386Z,19.00
2023-05-19T13:05:52.406Z,21.65
2023-05-19T13:08:30.026Z,34.42
2023-05-19T13:10:58.359Z,54.28
2023-05-19T13:13:27.063Z,43.45
2023-05-19T13:15:58.539Z,77.65
2023-05-19T13:21:18.669Z,51.95
2023-05-19T13:23:46.834Z,55.05
2023-05-19T13:26:24.386Z,49.35
2023-05-19T13:28:55.715Z,84.47
2023-05-19T13:31:29.125Z,45.63
2023-05-19T13:36:33.417Z,61.05
2023-05-19T13:42:15.747Z,125.60
2023-05-19T13:44:48.725Z,111.05
2023-05-19T13:47:29.983Z,93.20
2023-05-19T13:49:59.776Z,107.78
2023-05-19T13:52:29.790Z,32.80
2023-05-19T13:55:06.451Z,71.47
2023-05-19T13:57:41.596Z,61.33
2023-05-19T14:00:24.439Z,23.48
2023-05-19T14:02:52.994Z,30.50
2023-05-19T14:05:23.230Z,20.35
2023-05-19T14:07:57.812Z,20.80
2023-05-19T14:10:46.161Z,24.08
2023-05-19T14:13:32.595Z,18.40
2023-05-19T14:16:02.972Z,17.05
2023-05-19T14:18:32.526Z,17.27
2023-05-19T14:21:02.262Z,18.70
2023-05-19T14:23:30.812Z,15.63
2023-05-19T14:25:59.055Z,16.30
2023-05-19T14:28:27.464Z,18.02
2023-05-19T14:30:55.627Z,14.60
2023-05-19T14:33:24.138Z,13.73
2023-05-19T14:36:00.347Z,11.23
2023-05-19T14:38:29.930Z,14.88
2023-05-19T14:40:58.214Z,14.32
2023-05-19T14:43:26.290Z,11.65
2023-05-19T14:45:54.352Z,12.15
2023-05-19T14:48:22.457Z,10.48
2023-05-19T14:50:50.644Z,9.95
2023-05-19T14:53:18.738Z,13.23
2023-05-19T14:55:50.271Z,12.93
2023-05-19T14:58:28.160Z,6.47
2023-05-19T15:00:59.132Z,9.25
2023-05-19T15:03:27.355Z,14.32
2023-05-19T15:05:55.394Z,12.55
2023-05-19T15:08:23.503Z,13.80
2023-05-19T15:10:52.842Z,14.90
2023-05-19T15:13:21.576Z,17.10
2023-05-19T15:15:49.754Z,18.52
2023-05-19T15:18:18.870Z,27.48
2023-05-19T15:20:46.906Z,25.40
2023-05-19T15:23:14.970Z,33.17
2023-05-19T15:25:43.092Z,29.38
2023-05-19T15:28:13.674Z,38.90
2023-05-19T15:30:42.971Z,42.40
2023-05-19T15:33:11.797Z,45.33
2023-05-19T15:35:39.915Z,42.30
2023-05-19T15:38:08.001Z,38.35
2023-05-19T15:40:36.324Z,37.25
2023-05-19T15:43:04.361Z,36.05
2023-05-19T15:45:33.914Z,32.42
2023-05-19T15:48:01.942Z,30.33
2023-05-19T15:50:30.287Z,23.98
2023-05-19T15:52:58.456Z,22.42
2023-05-19T15:55:26.645Z,24.60
2023-05-19T15:57:54.562Z,19.13
2023-05-19T16:00:22.815Z,18.27
2023-05-19T16:02:53.779Z,15.98
2023-05-19T16:05:21.988Z,19.00
2023-05-19T16:07:50.005Z,15.35
2023-05-19T16:10:18.152Z,17.02
2023-05-19T16:12:46.171Z,17.30
2023-05-19T16:15:14.216Z,16.48
2023-05-19T16:17:42.277Z,15.90
2023-05-19T16:20:12.711Z,19.15
2023-05-19T16:22:40.746Z,15.60
2023-05-19T16:25:09.774Z,16.73
2023-05-19T16:27:37.689Z,14.55
2023-05-19T16:30:06.654Z,18.17
2023-05-19T16:32:34.768Z,21.23
2023-05-19T16:35:02.945Z,16.20
2023-05-19T16:37:32.422Z,15.15
2023-05-19T16:40:00.432Z,15.25
2023-05-19T16:42:28.539Z,14.85
2023-05-19T16:44:56.855Z,21.35
2023-05-19T16:47:24.946Z,17.30
2023-05-19T16:49:53.068Z,15.20
2023-05-19T16:52:21.062Z,16.15
2023-05-19T16:54:50.462Z,16.38
2023-05-19T16:57:18.526Z,16.83
2023-05-19T16:59:46.487Z,11.70
2023-05-19T17:02:14.595Z,13.77
2023-05-19T17:04:42.639Z,11.25
2023-05-19T17:07:15.520Z,14.00
2023-05-19T17:09:43.730Z,11.07
2023-05-19T17:12:13.379Z,14.70
2023-05-19T17:14:42.340Z,15.85
2023-05-19T17:17:10.595Z,23.50
2023-05-19T17:19:38.655Z,17.30
2023-05-19T17:22:06.632Z,18.17
2023-05-19T17:24:34.555Z,18.35
2023-05-19T17:27:02.799Z,19.42
2023-05-19T17:29:32.319Z,22.95
2023-05-19T17:32:00.458Z,17.20
2023-05-19T17:34:30.107Z,20.55
2023-05-19T17:36:58.188Z,24.08
2023-05-19T17:39:26.279Z,25.38
2023-05-19T17:41:54.262Z,18.48
2023-05-19T17:44:22.308Z,26.60
2023-05-19T17:46:51.827Z,20.38
2023-05-19T17:49:20.073Z,19.17
2023-05-19T17:51:48.532Z,18.23
2023-05-19T17:54:17.120Z,19.92
2023-05-19T17:56:46.453Z,21.48
2023-05-19T17:59:14.769Z,18.83
2023-05-19T18:01:43.454Z,18.52
2023-05-19T18:04:16.501Z,18.05
2023-05-19T18:06:45.820Z,19.73
2023-05-19T18:09:15.059Z,19.80
2023-05-19T18:11:43.064Z,19.48
2023-05-19T18:14:11.524Z,19.55
2023-05-19T18:16:39.551Z,22.08
2023-05-19T18:19:07.806Z,18.23
2023-05-19T18:21:37.269Z,18.45
2023-05-19T18:24:05.954Z,18.00
2023-05-19T18:26:34.287Z,17.35
2023-05-19T18:29:04.908Z,16.52
2023-05-19T18:31:33.162Z,45.10
2023-05-19T18:34:01.175Z,30.60
2023-05-19T18:36:29.182Z,21.98
2023-05-19T18:39:00.567Z,18.23
2023-05-19T18:41:28.968Z,16.58
2023-05-19T18:43:56.945Z,18.88
2023-05-19T18:46:25.296Z,15.38
2023-05-19T18:48:53.380Z,18.50
2023-05-19T18:51:21.815Z,16.67
2023-05-19T18:53:50.660Z,17.60
2023-05-19T18:56:26.110Z,19.20
2023-05-19T18:58:54.305Z,20.25
2023-05-19T19:01:22.349Z,19.30
2023-05-19T19:03:50.644Z,13.93
2023-05-19T19:06:20.662Z,20.52
2023-05-19T19:08:48.781Z,17.10
2023-05-19T19:11:16.794Z,16.48
2023-05-19T19:13:46.386Z,18.35
2023-05-19T19:16:14.444Z,17.13
2023-05-19T19:18:42.409Z,19.23
2023-05-19T19:21:10.370Z,16.48
2023-05-19T19:23:39.403Z,16.35
2023-05-19T19:26:08.559Z,18.23
2023-05-19T19:28:37.058Z,15.20
2023-05-19T19:31:06.564Z,15.88
2023-05-19T19:33:34.705Z,23.38
2023-05-19T19:36:02.758Z,33.65
2023-05-19T19:38:30.905Z,29.48
2023-05-19T19:40:59.190Z,33.38
2023-05-19T19:43:27.333Z,25.42
2023-05-19T19:46:00.681Z,27.20
2023-05-19T19:48:30.164Z,28.08
2023-05-19T19:50:58.648Z,26.52
2023-05-19T19:53:27.049Z,31.10
2023-05-19T19:55:59.375Z,31.52
2023-05-19T19:58:28.265Z,28.52
2023-05-19T20:00:59.778Z,25.92
2023-05-19T20:03:29.610Z,24.95
2023-05-19T20:05:58.151Z,24.80
2023-05-19T20:08:26.991Z,29.80
2023-05-19T20:10:55.455Z,26.58
2023-05-19T20:13:23.800Z,28.25
2023-05-19T20:15:51.841Z,22.45
2023-05-19T20:18:19.862Z,17.73
2023-05-19T20:20:49.219Z,23.63
2023-05-19T20:23:17.230Z,22.55
2023-05-19T20:26:02.343Z,25.35
2023-05-19T20:28:35.032Z,28.85
2023-05-19T20:31:03.237Z,29.05
2023-05-19T20:33:31.775Z,29.67
2023-05-19T20:36:01.349Z,27.08
2023-05-19T20:38:29.304Z,27.35
2023-05-19T20:40:57.341Z,22.75
2023-05-19T20:43:25.555Z,27.88
2023-05-19T20:45:53.532Z,23.25
2023-05-19T20:48:21.712Z,26.15
2023-05-19T20:50:49.704Z,24.55
2023-05-19T20:53:21.295Z,27.30
2023-05-19T20:55:49.585Z,18.40
2023-05-19T20:58:17.621Z,21.15
2023-05-19T21:00:45.603Z,14.80
2023-05-19T21:03:13.790Z,19.85
2023-05-19T21:05:41.844Z,19.83
2023-05-19T21:08:12.792Z,24.90
2023-05-19T21:10:42.511Z,14.77
2023-05-19T21:13:10.468Z,21.55
2023-05-19T21:15:38.658Z,25.27
2023-05-19T21:18:07.857Z,23.05
2023-05-19T21:20:35.982Z,23.67
2023-05-19T21:23:04.146Z,26.65
2023-05-19T21:25:32.457Z,26.38
2023-05-19T21:28:01.779Z,34.55
2023-05-19T21:30:29.771Z,30.77
2023-05-19T21:32:57.989Z,33.00
2023-05-19T21:35:26.057Z,31.10
2023-05-19T21:37:54.146Z,38.90
2023-05-19T21:40:22.209Z,35.35
2023-05-19T21:42:50.213Z,34.10
2023-05-19T21:45:19.704Z,35.33
2023-05-19T21:47:47.987Z,36.83
2023-05-19T21:50:17.472Z,34.00
2023-05-19T21:52:45.524Z,35.60
2023-05-19T21:55:13.521Z,36.05
2023-05-19T21:57:41.664Z,40.08
2023-05-19T22:00:13.154Z,36.10
2023-05-19T22:02:43.128Z,32.92
2023-05-19T22:05:12.019Z,33.67
2023-05-19T22:07:39.983Z,34.50
2023-05-19T22:10:08.928Z,27.98
2023-05-19T22:12:36.993Z,29.23
2023-05-19T22:15:06.573Z,28.38
2023-05-19T22:17:34.552Z,24.98
2023-05-19T22:20:04.058Z,26.50
2023-05-19T22:22:32.275Z,31.88
2023-05-19T22:25:00.388Z,33.05
2023-05-19T22:27:28.526Z,32.40
2023-05-19T22:29:56.684Z,35.85
2023-05-19T22:32:24.811Z,36.97
2023-05-19T22:34:52.937Z,39.60
2023-05-19T22:37:24.258Z,43.50
2023-05-19T22:39:52.365Z,39.25
2023-05-19T22:42:20.530Z,45.47
2023-05-19T22:44:48.672Z,48.83
2023-05-19T22:47:16.665Z,50.17
2023-05-19T22:49:44.874Z,47.30
2023-05-19T22:52:13.098Z,47.67
2023-05-19T22:54:42.459Z,46.08
2023-05-19T22:57:10.586Z,46.15
2023-05-19T22:59:38.771Z,47.67
2023-05-19T23:02:07.076Z,53.35
2023-05-19T23:04:35.689Z,58.85
2023-05-19T23:07:03.944Z,47.10
2023-05-19T23:09:32.077Z,50.67
2023-05-19T23:12:01.417Z,39.40
2023-05-19T23:14:29.509Z,51.03
2023-05-19T23:16:57.640Z,46.47
2023-05-19T23:19:25.813Z,47.20
2023-05-19T23:21:53.783Z,44.35
2023-05-19T23:24:21.909Z,52.05
2023-05-19T23:26:50.081Z,59.33
2023-05-19T23:29:19.568Z,53.72
2023-05-19T23:31:47.821Z,54.45
2023-05-19T23:34:16.032Z,45.25
2023-05-19T23:36:44.009Z,43.50
2023-05-19T23:39:13.541Z,43.70
2023-05-19T23:41:41.533Z,37.13
2023-05-19T23:44:09.948Z,34.50
2023-05-19T23:46:39.386Z,40.97
2023-05-19T23:49:07.449Z,31.83
2023-05-19T23:51:35.601Z,34.58
2023-05-19T23:54:03.595Z,32.40
2023-05-19T23:56:31.699Z,43.22
2023-05-19T23:58:59.736Z,40.42
